sensor_id;sensor_type;location;lat;lon;timestamp;pressure;altitude;pressure_sealevel;temperature;humidity
50166;BME280;36071;48.140;11.516;2023-07-16T00:04:48;95250.0;;;24.9;57.4
50166;BME280;36071;48.140;11.516;2023-07-16T00:09:48;95260.0;;;24.8;58.4
50166;BME280;36071;48.140;11.516;2023-07-16T00:14:48;95260.0;;;24.6;59.1
50166;BME280;36071;48.140;11.516;2023-07-16T00:19:48;95250.0;;;24.6;59.3
50166;BME280;36071;48.140;11.516;2023-07-16T00:24:48;95270.0;;;24.6;59.6
50166;BME280;36071;48.140;11.516;2023-07-16T00:29:48;95270.0;;;24.6;59.4
50166;BME280;36071;48.140;11.516;2023-07-16T00:34:48;95270.0;;;24.7;59.1
50166;BME280;36071;48.140;11.516;2023-07-16T00:39:48;95300.0;;;24.6;59.7
50166;BME280;36071;48.140;11.516;2023-07-16T00:44:48;95320.0;;;24.5;60.4
50166;BME280;36071;48.140;11.516;2023-07-16T00:49:50;95370.0;;;24.3;61.3
50166;BME280;36071;48.140;11.516;2023-07-16T00:54:48;95420.0;;;24.2;61.9
50166;BME280;36071;48.140;11.516;2023-07-16T00:59:50;95430.0;;;24.1;62.7
50166;BME280;36071;48.140;11.516;2023-07-16T01:04:48;95460.0;;;24.0;63.2
50166;BME280;36071;48.140;11.516;2023-07-16T01:09:48;95470.0;;;23.9;63.8
50166;BME280;36071;48.140;11.516;2023-07-16T01:14:49;95470.0;;;23.7;64.8
50166;BME280;36071;48.140;11.516;2023-07-16T01:19:48;95480.0;;;23.8;64.9
50166;BME280;36071;48.140;11.516;2023-07-16T01:25:00;95490.0;;;23.6;65.5
50166;BME280;36071;48.140;11.516;2023-07-16T01:29:49;95490.0;;;23.6;65.9
50166;BME280;36071;48.140;11.516;2023-07-16T01:34:48;95500.0;;;23.6;66.1
50166;BME280;36071;48.140;11.516;2023-07-16T01:39:48;95500.0;;;23.5;66.6
50166;BME280;36071;48.140;11.516;2023-07-16T01:44:48;95510.0;;;23.5;66.5
50166;BME280;36071;48.140;11.516;2023-07-16T01:49:48;95520.0;;;23.5;66.6
50166;BME280;36071;48.140;11.516;2023-07-16T01:54:50;95510.0;;;23.6;66.6
50166;BME280;36071;48.140;11.516;2023-07-16T01:59:48;95510.0;;;23.5;67.4
50166;BME280;36071;48.140;11.516;2023-07-16T02:04:48;95520.0;;;23.5;66.6
50166;BME280;36071;48.140;11.516;2023-07-16T02:09:48;95520.0;;;23.6;67.4
50166;BME280;36071;48.140;11.516;2023-07-16T02:14:48;95530.0;;;23.6;67.2
50166;BME280;36071;48.140;11.516;2023-07-16T02:19:48;95540.0;;;23.5;68.2
50166;BME280;36071;48.140;11.516;2023-07-16T02:24:48;95540.0;;;23.4;67.9
50166;BME280;36071;48.140;11.516;2023-07-16T02:29:48;95520.0;;;23.3;68.7
50166;BME280;36071;48.140;11.516;2023-07-16T02:34:49;95530.0;;;23.3;68.9
50166;BME280;36071;48.140;11.516;2023-07-16T02:39:48;95540.0;;;23.3;69.0
50166;BME280;36071;48.140;11.516;2023-07-16T02:44:49;95540.0;;;23.3;69.1
50166;BME280;36071;48.140;11.516;2023-07-16T02:49:50;95550.0;;;23.2;68.9
50166;BME280;36071;48.140;11.516;2023-07-16T02:54:48;95560.0;;;23.1;69.0
50166;BME280;36071;48.140;11.516;2023-07-16T02:59:48;95550.0;;;23.1;67.9
50166;BME280;36071;48.140;11.516;2023-07-16T03:04:48;95570.0;;;23.1;67.9
50166;BME280;36071;48.140;11.516;2023-07-16T03:09:48;95570.0;;;23.0;68.1
50166;BME280;36071;48.140;11.516;2023-07-16T03:14:49;95580.0;;;23.0;68.8
50166;BME280;36071;48.140;11.516;2023-07-16T03:19:48;95570.0;;;23.0;68.4
50166;BME280;36071;48.140;11.516;2023-07-16T03:24:48;95580.0;;;23.0;69.1
50166;BME280;36071;48.140;11.516;2023-07-16T03:29:48;95580.0;;;22.9;69.7
50166;BME280;36071;48.140;11.516;2023-07-16T03:34:49;95590.0;;;23.0;70.1
50166;BME280;36071;48.140;11.516;2023-07-16T03:39:48;95600.0;;;23.0;69.7
50166;BME280;36071;48.140;11.516;2023-07-16T03:44:48;95600.0;;;22.9;69.1
50166;BME280;36071;48.140;11.516;2023-07-16T03:49:48;95610.0;;;22.9;68.0
50166;BME280;36071;48.140;11.516;2023-07-16T03:54:48;95610.0;;;23.0;67.7
50166;BME280;36071;48.140;11.516;2023-07-16T04:04:48;95610.0;;;22.9;67.1
50166;BME280;36071;48.140;11.516;2023-07-16T04:09:49;95620.0;;;22.8;68.1
50166;BME280;36071;48.140;11.516;2023-07-16T04:14:48;95640.0;;;22.7;69.9
50166;BME280;36071;48.140;11.516;2023-07-16T04:19:48;95650.0;;;22.6;73.1
50166;BME280;36071;48.140;11.516;2023-07-16T04:24:49;95660.0;;;22.4;74.7
50166;BME280;36071;48.140;11.516;2023-07-16T04:29:48;95670.0;;;22.4;74.4
50166;BME280;36071;48.140;11.516;2023-07-16T04:34:48;95660.0;;;22.3;74.7
50166;BME280;36071;48.140;11.516;2023-07-16T04:39:50;95670.0;;;22.3;74.8
50166;BME280;36071;48.140;11.516;2023-07-16T04:44:48;95680.0;;;22.2;76.1
50166;BME280;36071;48.140;11.516;2023-07-16T04:49:48;95680.0;;;22.1;76.8
50166;BME280;36071;48.140;11.516;2023-07-16T04:54:48;95670.0;;;22.1;77.3
50166;BME280;36071;48.140;11.516;2023-07-16T04:59:49;95670.0;;;22.1;75.7
50166;BME280;36071;48.140;11.516;2023-07-16T05:04:48;95650.0;;;21.8;79.4
50166;BME280;36071;48.140;11.516;2023-07-16T05:09:50;95660.0;;;21.6;79.8
50166;BME280;36071;48.140;11.516;2023-07-16T05:14:49;95670.0;;;21.8;79.4
50166;BME280;36071;48.140;11.516;2023-07-16T05:19:48;95660.0;;;21.8;82.1
50166;BME280;36071;48.140;11.516;2023-07-16T05:24:48;95670.0;;;21.9;82.6
50166;BME280;36071;48.140;11.516;2023-07-16T05:29:48;95680.0;;;21.7;85.0
50166;BME280;36071;48.140;11.516;2023-07-16T05:34:48;95680.0;;;21.6;85.1
50166;BME280;36071;48.140;11.516;2023-07-16T05:39:48;95680.0;;;21.6;84.2
50166;BME280;36071;48.140;11.516;2023-07-16T05:44:49;95680.0;;;21.5;85.3
50166;BME280;36071;48.140;11.516;2023-07-16T05:49:48;95710.0;;;21.6;85.2
50166;BME280;36071;48.140;11.516;2023-07-16T05:54:48;95720.0;;;21.8;83.8
50166;BME280;36071;48.140;11.516;2023-07-16T05:59:49;95730.0;;;21.9;83.4
50166;BME280;36071;48.140;11.516;2023-07-16T06:04:49;95720.0;;;21.8;83.6
50166;BME280;36071;48.140;11.516;2023-07-16T06:09:49;95720.0;;;22.0;83.9
50166;BME280;36071;48.140;11.516;2023-07-16T06:14:48;95720.0;;;22.1;83.3
50166;BME280;36071;48.140;11.516;2023-07-16T06:19:48;95740.0;;;22.0;83.9
50166;BME280;36071;48.140;11.516;2023-07-16T06:24:48;95740.0;;;22.0;84.7
50166;BME280;36071;48.140;11.516;2023-07-16T06:29:49;95730.0;;;22.2;83.0
50166;BME280;36071;48.140;11.516;2023-07-16T06:34:48;95740.0;;;22.2;83.1
50166;BME280;36071;48.140;11.516;2023-07-16T06:39:48;95750.0;;;22.2;82.0
50166;BME280;36071;48.140;11.516;2023-07-16T06:44:49;95740.0;;;22.3;82.0
50166;BME280;36071;48.140;11.516;2023-07-16T06:49:48;95740.0;;;22.4;82.0
50166;BME280;36071;48.140;11.516;2023-07-16T06:54:48;95750.0;;;22.5;77.4
50166;BME280;36071;48.140;11.516;2023-07-16T06:59:49;95760.0;;;22.5;75.0
50166;BME280;36071;48.140;11.516;2023-07-16T07:04:49;95760.0;;;22.5;74.8
50166;BME280;36071;48.140;11.516;2023-07-16T07:09:49;95760.0;;;22.6;73.7
50166;BME280;36071;48.140;11.516;2023-07-16T07:14:49;95760.0;;;22.6;73.9
50166;BME280;36071;48.140;11.516;2023-07-16T07:19:48;95750.0;;;22.7;72.1
50166;BME280;36071;48.140;11.516;2023-07-16T07:24:48;95750.0;;;22.7;70.1
50166;BME280;36071;48.140;11.516;2023-07-16T07:29:49;95760.0;;;22.8;69.3
50166;BME280;36071;48.140;11.516;2023-07-16T07:34:49;95760.0;;;22.8;68.5
50166;BME280;36071;48.140;11.516;2023-07-16T07:39:51;95750.0;;;22.8;69.5
50166;BME280;36071;48.140;11.516;2023-07-16T07:44:49;95750.0;;;22.9;69.7
50166;BME280;36071;48.140;11.516;2023-07-16T07:49:49;95750.0;;;22.9;68.9
50166;BME280;36071;48.140;11.516;2023-07-16T07:54:48;95750.0;;;23.0;68.6
50166;BME280;36071;48.140;11.516;2023-07-16T07:59:49;95740.0;;;23.2;69.0
50166;BME280;36071;48.140;11.516;2023-07-16T08:04:49;95750.0;;;23.2;67.6
50166;BME280;36071;48.140;11.516;2023-07-16T08:09:49;95730.0;;;23.3;66.1
50166;BME280;36071;48.140;11.516;2023-07-16T08:14:49;95730.0;;;23.4;65.6
50166;BME280;36071;48.140;11.516;2023-07-16T08:19:50;95720.0;;;23.5;64.6
50166;BME280;36071;48.140;11.516;2023-07-16T08:24:49;95720.0;;;23.6;64.3
50166;BME280;36071;48.140;11.516;2023-07-16T08:29:49;95730.0;;;23.8;62.2
50166;BME280;36071;48.140;11.516;2023-07-16T08:34:49;95720.0;;;24.0;60.9
50166;BME280;36071;48.140;11.516;2023-07-16T08:39:50;95720.0;;;24.1;59.2
50166;BME280;36071;48.140;11.516;2023-07-16T08:44:49;95710.0;;;24.3;59.4
50166;BME280;36071;48.140;11.516;2023-07-16T08:49:50;95700.0;;;24.5;57.5
50166;BME280;36071;48.140;11.516;2023-07-16T08:54:49;95700.0;;;24.5;56.1
50166;BME280;36071;48.140;11.516;2023-07-16T08:59:49;95710.0;;;24.7;55.6
50166;BME280;36071;48.140;11.516;2023-07-16T09:04:49;95700.0;;;24.8;54.9
50166;BME280;36071;48.140;11.516;2023-07-16T09:09:54;95690.0;;;24.5;55.6
50166;BME280;36071;48.140;11.516;2023-07-16T09:14:49;95690.0;;;24.9;55.3
50166;BME280;36071;48.140;11.516;2023-07-16T09:19:49;95700.0;;;25.3;55.1
50166;BME280;36071;48.140;11.516;2023-07-16T09:24:49;95690.0;;;25.4;54.7
50166;BME280;36071;48.140;11.516;2023-07-16T09:29:48;95690.0;;;25.8;53.3
50166;BME280;36071;48.140;11.516;2023-07-16T09:34:49;95680.0;;;25.9;49.5
50166;BME280;36071;48.140;11.516;2023-07-16T09:39:48;95670.0;;;26.6;48.7
50166;BME280;36071;48.140;11.516;2023-07-16T09:44:49;95680.0;;;27.1;46.6
50166;BME280;36071;48.140;11.516;2023-07-16T09:49:49;95660.0;;;27.3;46.4
50166;BME280;36071;48.140;11.516;2023-07-16T09:54:49;95660.0;;;27.9;44.9
50166;BME280;36071;48.140;11.516;2023-07-16T09:59:49;95660.0;;;28.7;44.2
50166;BME280;36071;48.140;11.516;2023-07-16T10:04:49;95660.0;;;28.8;42.8
50166;BME280;36071;48.140;11.516;2023-07-16T10:09:52;95650.0;;;29.5;42.0
50166;BME280;36071;48.140;11.516;2023-07-16T10:14:49;95650.0;;;29.8;40.3
50166;BME280;36071;48.140;11.516;2023-07-16T10:19:49;95650.0;;;29.9;40.0
50166;BME280;36071;48.140;11.516;2023-07-16T10:25:25;95660.0;;;30.2;38.8
50166;BME280;36071;48.140;11.516;2023-07-16T10:34:49;95650.0;;;30.4;38.5
50166;BME280;36071;48.140;11.516;2023-07-16T10:39:50;95640.0;;;30.4;37.9
50166;BME280;36071;48.140;11.516;2023-07-16T10:44:49;95630.0;;;30.3;37.4
50166;BME280;36071;48.140;11.516;2023-07-16T10:49:49;95640.0;;;30.1;37.5
50166;BME280;36071;48.140;11.516;2023-07-16T10:54:49;95620.0;;;29.7;38.8
50166;BME280;36071;48.140;11.516;2023-07-16T10:59:50;95630.0;;;30.0;39.2
50166;BME280;36071;48.140;11.516;2023-07-16T11:04:49;95640.0;;;30.5;38.1
50166;BME280;36071;48.140;11.516;2023-07-16T11:09:49;95630.0;;;31.1;38.5
50166;BME280;36071;48.140;11.516;2023-07-16T11:14:49;95630.0;;;31.2;37.5
50166;BME280;36071;48.140;11.516;2023-07-16T11:19:52;95630.0;;;30.8;38.3
50166;BME280;36071;48.140;11.516;2023-07-16T11:24:49;95610.0;;;30.9;38.4
50166;BME280;36071;48.140;11.516;2023-07-16T11:29:49;95610.0;;;30.2;38.5
50166;BME280;36071;48.140;11.516;2023-07-16T11:34:52;95620.0;;;30.0;39.2
50166;BME280;36071;48.140;11.516;2023-07-16T11:39:49;95610.0;;;29.8;39.9
50166;BME280;36071;48.140;11.516;2023-07-16T11:44:49;95600.0;;;29.8;39.6
50166;BME280;36071;48.140;11.516;2023-07-16T11:49:49;95600.0;;;29.9;40.9
50166;BME280;36071;48.140;11.516;2023-07-16T11:54:49;95590.0;;;30.3;40.7
50166;BME280;36071;48.140;11.516;2023-07-16T11:59:50;95590.0;;;30.6;40.8
50166;BME280;36071;48.140;11.516;2023-07-16T12:04:49;95600.0;;;30.1;39.9
50166;BME280;36071;48.140;11.516;2023-07-16T12:09:49;95590.0;;;29.6;41.1
50166;BME280;36071;48.140;11.516;2023-07-16T12:14:49;95600.0;;;29.4;41.3
50166;BME280;36071;48.140;11.516;2023-07-16T12:19:49;95580.0;;;29.3;41.8
50166;BME280;36071;48.140;11.516;2023-07-16T12:24:49;95580.0;;;29.1;41.9
50166;BME280;36071;48.140;11.516;2023-07-16T12:29:49;95580.0;;;29.1;43.1
50166;BME280;36071;48.140;11.516;2023-07-16T12:34:49;95580.0;;;29.3;43.6
50166;BME280;36071;48.140;11.516;2023-07-16T12:39:49;95570.0;;;29.3;42.5
50166;BME280;36071;48.140;11.516;2023-07-16T12:44:49;95590.0;;;29.3;43.5
50166;BME280;36071;48.140;11.516;2023-07-16T12:49:49;95590.0;;;28.9;45.3
50166;BME280;36071;48.140;11.516;2023-07-16T12:54:49;95580.0;;;28.6;46.4
50166;BME280;36071;48.140;11.516;2023-07-16T12:59:49;95580.0;;;28.6;47.5
50166;BME280;36071;48.140;11.516;2023-07-16T13:04:49;95590.0;;;28.9;47.0
50166;BME280;36071;48.140;11.516;2023-07-16T13:09:49;95580.0;;;29.4;45.6
50166;BME280;36071;48.140;11.516;2023-07-16T13:14:49;95580.0;;;29.6;44.4
50166;BME280;36071;48.140;11.516;2023-07-16T13:19:49;95590.0;;;29.4;45.2
50166;BME280;36071;48.140;11.516;2023-07-16T13:24:49;95580.0;;;29.4;45.9
50166;BME280;36071;48.140;11.516;2023-07-16T13:29:49;95590.0;;;29.7;45.6
50166;BME280;36071;48.140;11.516;2023-07-16T13:34:49;95570.0;;;29.6;44.4
50166;BME280;36071;48.140;11.516;2023-07-16T13:39:49;95570.0;;;29.5;43.9
50166;BME280;36071;48.140;11.516;2023-07-16T13:44:49;95570.0;;;29.4;44.2
50166;BME280;36071;48.140;11.516;2023-07-16T13:49:49;95570.0;;;29.3;44.5
50166;BME280;36071;48.140;11.516;2023-07-16T13:54:49;95570.0;;;29.4;45.0
50166;BME280;36071;48.140;11.516;2023-07-16T13:59:49;95570.0;;;29.4;45.1
50166;BME280;36071;48.140;11.516;2023-07-16T14:04:49;95570.0;;;29.3;44.9
50166;BME280;36071;48.140;11.516;2023-07-16T14:09:49;95570.0;;;29.3;45.0
50166;BME280;36071;48.140;11.516;2023-07-16T14:14:49;95560.0;;;29.4;44.2
50166;BME280;36071;48.140;11.516;2023-07-16T14:19:49;95560.0;;;29.2;45.1
50166;BME280;36071;48.140;11.516;2023-07-16T14:24:49;95560.0;;;29.1;45.4
50166;BME280;36071;48.140;11.516;2023-07-16T14:29:49;95570.0;;;29.0;45.0
50166;BME280;36071;48.140;11.516;2023-07-16T14:34:49;95580.0;;;29.1;44.9
50166;BME280;36071;48.140;11.516;2023-07-16T14:39:49;95580.0;;;28.9;45.6
50166;BME280;36071;48.140;11.516;2023-07-16T14:44:49;95580.0;;;28.6;45.6
50166;BME280;36071;48.140;11.516;2023-07-16T14:49:49;95570.0;;;28.4;46.3
50166;BME280;36071;48.140;11.516;2023-07-16T14:54:49;95580.0;;;28.3;46.7
50166;BME280;36071;48.140;11.516;2023-07-16T14:59:49;95580.0;;;28.2;46.8
50166;BME280;36071;48.140;11.516;2023-07-16T15:04:49;95580.0;;;28.1;46.9
50166;BME280;36071;48.140;11.516;2023-07-16T15:14:49;95570.0;;;28.1;46.6
50166;BME280;36071;48.140;11.516;2023-07-16T15:19:49;95570.0;;;28.2;47.4
50166;BME280;36071;48.140;11.516;2023-07-16T15:24:49;95560.0;;;28.2;46.4
50166;BME280;36071;48.140;11.516;2023-07-16T15:29:49;95570.0;;;28.2;46.7
50166;BME280;36071;48.140;11.516;2023-07-16T15:34:49;95570.0;;;28.0;46.1
50166;BME280;36071;48.140;11.516;2023-07-16T15:39:50;95580.0;;;28.0;45.9
50166;BME280;36071;48.140;11.516;2023-07-16T15:44:49;95570.0;;;28.0;45.9
50166;BME280;36071;48.140;11.516;2023-07-16T15:49:49;95560.0;;;28.2;46.6
50166;BME280;36071;48.140;11.516;2023-07-16T15:54:49;95580.0;;;28.3;46.5
50166;BME280;36071;48.140;11.516;2023-07-16T15:59:49;95560.0;;;28.2;46.1
50166;BME280;36071;48.140;11.516;2023-07-16T16:04:49;95560.0;;;28.2;45.9
50166;BME280;36071;48.140;11.516;2023-07-16T16:09:49;95570.0;;;28.4;46.0
50166;BME280;36071;48.140;11.516;2023-07-16T16:14:49;95560.0;;;28.5;45.4
50166;BME280;36071;48.140;11.516;2023-07-16T16:19:49;95570.0;;;28.5;45.6
50166;BME280;36071;48.140;11.516;2023-07-16T16:24:49;95580.0;;;28.3;46.0
50166;BME280;36071;48.140;11.516;2023-07-16T16:29:49;95570.0;;;28.2;46.3
50166;BME280;36071;48.140;11.516;2023-07-16T16:34:49;95570.0;;;28.1;45.9
50166;BME280;36071;48.140;11.516;2023-07-16T16:39:49;95570.0;;;28.1;45.6
50166;BME280;36071;48.140;11.516;2023-07-16T16:44:49;95560.0;;;28.3;46.5
50166;BME280;36071;48.140;11.516;2023-07-16T16:49:49;95560.0;;;28.3;45.5
50166;BME280;36071;48.140;11.516;2023-07-16T16:54:49;95560.0;;;28.2;46.2
50166;BME280;36071;48.140;11.516;2023-07-16T16:59:49;95570.0;;;28.2;45.4
50166;BME280;36071;48.140;11.516;2023-07-16T17:04:49;95560.0;;;28.1;46.0
50166;BME280;36071;48.140;11.516;2023-07-16T17:09:49;95560.0;;;28.0;45.8
50166;BME280;36071;48.140;11.516;2023-07-16T17:14:49;95550.0;;;28.0;45.7
50166;BME280;36071;48.140;11.516;2023-07-16T17:19:52;95560.0;;;28.0;46.3
50166;BME280;36071;48.140;11.516;2023-07-16T17:24:49;95550.0;;;27.9;46.5
50166;BME280;36071;48.140;11.516;2023-07-16T17:29:49;95560.0;;;27.8;47.0
50166;BME280;36071;48.140;11.516;2023-07-16T17:34:49;95560.0;;;27.7;46.7
50166;BME280;36071;48.140;11.516;2023-07-16T17:39:49;95550.0;;;27.6;46.8
50166;BME280;36071;48.140;11.516;2023-07-16T17:44:49;95560.0;;;27.6;47.0
50166;BME280;36071;48.140;11.516;2023-07-16T17:49:49;95580.0;;;27.6;47.3
50166;BME280;36071;48.140;11.516;2023-07-16T17:54:49;95580.0;;;27.5;46.8
50166;BME280;36071;48.140;11.516;2023-07-16T17:59:49;95590.0;;;27.4;46.5
50166;BME280;36071;48.140;11.516;2023-07-16T18:04:49;95590.0;;;27.3;47.1
50166;BME280;36071;48.140;11.516;2023-07-16T18:09:49;95590.0;;;27.1;47.3
50166;BME280;36071;48.140;11.516;2023-07-16T18:14:49;95580.0;;;27.1;47.2
50166;BME280;36071;48.140;11.516;2023-07-16T18:19:49;95580.0;;;26.9;47.6
50166;BME280;36071;48.140;11.516;2023-07-16T18:24:49;95590.0;;;26.8;47.6
50166;BME280;36071;48.140;11.516;2023-07-16T18:29:49;95590.0;;;26.7;47.9
50166;BME280;36071;48.140;11.516;2023-07-16T18:34:49;95580.0;;;26.6;48.1
50166;BME280;36071;48.140;11.516;2023-07-16T18:39:50;95590.0;;;26.6;48.1
50166;BME280;36071;48.140;11.516;2023-07-16T18:44:49;95590.0;;;26.6;48.5
50166;BME280;36071;48.140;11.516;2023-07-16T18:49:49;95600.0;;;26.5;48.3
50166;BME280;36071;48.140;11.516;2023-07-16T18:54:49;95600.0;;;26.4;48.5
50166;BME280;36071;48.140;11.516;2023-07-16T18:59:50;95610.0;;;26.3;48.8
50166;BME280;36071;48.140;11.516;2023-07-16T19:04:49;95610.0;;;26.3;49.0
50166;BME280;36071;48.140;11.516;2023-07-16T19:09:49;95610.0;;;26.2;49.2
50166;BME280;36071;48.140;11.516;2023-07-16T19:14:49;95600.0;;;26.2;49.1
50166;BME280;36071;48.140;11.516;2023-07-16T19:19:50;95610.0;;;26.2;49.4
50166;BME280;36071;48.140;11.516;2023-07-16T19:24:49;95600.0;;;26.0;49.6
50166;BME280;36071;48.140;11.516;2023-07-16T19:29:49;95610.0;;;26.0;50.3
50166;BME280;36071;48.140;11.516;2023-07-16T19:34:49;95610.0;;;25.9;50.1
50166;BME280;36071;48.140;11.516;2023-07-16T19:39:49;95610.0;;;25.8;50.8
50166;BME280;36071;48.140;11.516;2023-07-16T19:44:49;95620.0;;;25.7;51.3
50166;BME280;36071;48.140;11.516;2023-07-16T19:49:49;95630.0;;;25.7;52.0
50166;BME280;36071;48.140;11.516;2023-07-16T19:54:49;95630.0;;;25.6;52.3
50166;BME280;36071;48.140;11.516;2023-07-16T19:59:49;95640.0;;;25.5;52.9
50166;BME280;36071;48.140;11.516;2023-07-16T20:04:49;95660.0;;;25.4;53.3
50166;BME280;36071;48.140;11.516;2023-07-16T20:09:49;95670.0;;;25.4;53.4
50166;BME280;36071;48.140;11.516;2023-07-16T20:14:49;95670.0;;;25.3;53.8
50166;BME280;36071;48.140;11.516;2023-07-16T20:19:49;95680.0;;;25.3;54.3
50166;BME280;36071;48.140;11.516;2023-07-16T20:24:49;95680.0;;;25.3;54.2
50166;BME280;36071;48.140;11.516;2023-07-16T20:29:49;95670.0;;;25.2;54.4
50166;BME280;36071;48.140;11.516;2023-07-16T20:34:49;95670.0;;;25.1;54.6
50166;BME280;36071;48.140;11.516;2023-07-16T20:39:49;95670.0;;;25.1;54.8
50166;BME280;36071;48.140;11.516;2023-07-16T20:45:10;95660.0;;;25.1;55.8
50166;BME280;36071;48.140;11.516;2023-07-16T20:49:49;95670.0;;;25.0;55.6
50166;BME280;36071;48.140;11.516;2023-07-16T20:54:49;95660.0;;;25.0;55.9
50166;BME280;36071;48.140;11.516;2023-07-16T20:59:49;95660.0;;;24.9;56.1
50166;BME280;36071;48.140;11.516;2023-07-16T21:04:49;95670.0;;;24.9;56.2
50166;BME280;36071;48.140;11.516;2023-07-16T21:09:49;95660.0;;;24.8;56.4
50166;BME280;36071;48.140;11.516;2023-07-16T21:14:49;95660.0;;;24.8;56.3
50166;BME280;36071;48.140;11.516;2023-07-16T21:19:49;95670.0;;;24.7;56.4
50166;BME280;36071;48.140;11.516;2023-07-16T21:29:49;95670.0;;;24.6;56.0
50166;BME280;36071;48.140;11.516;2023-07-16T21:34:49;95680.0;;;24.6;56.3
50166;BME280;36071;48.140;11.516;2023-07-16T21:39:49;95690.0;;;24.5;57.0
50166;BME280;36071;48.140;11.516;2023-07-16T21:44:49;95690.0;;;24.5;56.7
50166;BME280;36071;48.140;11.516;2023-07-16T21:49:49;95680.0;;;24.5;57.1
50166;BME280;36071;48.140;11.516;2023-07-16T21:54:49;95680.0;;;24.4;56.6
50166;BME280;36071;48.140;11.516;2023-07-16T21:59:49;95690.0;;;24.4;57.1
50166;BME280;36071;48.140;11.516;2023-07-16T22:04:49;95670.0;;;24.4;56.8
50166;BME280;36071;48.140;11.516;2023-07-16T22:09:49;95650.0;;;24.4;57.4
50166;BME280;36071;48.140;11.516;2023-07-16T22:14:49;95670.0;;;24.3;57.6
50166;BME280;36071;48.140;11.516;2023-07-16T22:19:49;95660.0;;;24.3;57.7
50166;BME280;36071;48.140;11.516;2023-07-16T22:24:49;95650.0;;;24.2;58.3
50166;BME280;36071;48.140;11.516;2023-07-16T22:29:49;95660.0;;;24.1;58.2
50166;BME280;36071;48.140;11.516;2023-07-16T22:34:49;95660.0;;;24.0;58.5
50166;BME280;36071;48.140;11.516;2023-07-16T22:39:49;95680.0;;;24.0;59.0
50166;BME280;36071;48.140;11.516;2023-07-16T22:44:50;95670.0;;;23.9;60.1
50166;BME280;36071;48.140;11.516;2023-07-16T22:49:49;95680.0;;;23.8;60.3
50166;BME280;36071;48.140;11.516;2023-07-16T22:54:49;95690.0;;;23.8;60.4
50166;BME280;36071;48.140;11.516;2023-07-16T22:59:50;95680.0;;;23.8;61.1
50166;BME280;36071;48.140;11.516;2023-07-16T23:04:49;95690.0;;;23.7;61.6
50166;BME280;36071;48.140;11.516;2023-07-16T23:09:49;95690.0;;;23.7;61.9
50166;BME280;36071;48.140;11.516;2023-07-16T23:14:49;95690.0;;;23.7;62.2
50166;BME280;36071;48.140;11.516;2023-07-16T23:19:49;95700.0;;;23.7;62.4
50166;BME280;36071;48.140;11.516;2023-07-16T23:24:49;95700.0;;;23.7;62.6
50166;BME280;36071;48.140;11.516;2023-07-16T23:29:49;95710.0;;;23.6;62.8
50166;BME280;36071;48.140;11.516;2023-07-16T23:34:49;95720.0;;;23.6;63.2
50166;BME280;36071;48.140;11.516;2023-07-16T23:39:49;95720.0;;;23.6;63.4
50166;BME280;36071;48.140;11.516;2023-07-16T23:44:49;95720.0;;;23.5;63.8
50166;BME280;36071;48.140;11.516;2023-07-16T23:49:49;95730.0;;;23.5;64.0
50166;BME280;36071;48.140;11.516;2023-07-16T23:54:49;95740.0;;;23.5;64.4
50166;BME280;36071;48.140;11.516;2023-07-16T23:59:49;95740.0;;;23.5;65.1
